sensor_id;sensor_type;location;lat;lon;timestamp;pressure;altitude;pressure_sealevel;temperature;humidity
14117;BME280;7137;51.436;6.544;2023-01-26T00:00:55;102143.31;;;0.28;92.23
14117;BME280;7137;51.436;6.544;2023-01-26T00:03:56;102136.34;;;0.24;92.67
14117;BME280;7137;51.436;6.544;2023-01-26T00:06:58;102132.28;;;0.31;93.14
14117;BME280;7137;51.436;6.544;2023-01-26T00:10:01;102124.88;;;0.40;93.08
14117;BME280;7137;51.436;6.544;2023-01-26T00:13:07;102121.59;;;0.44;91.61
14117;BME280;7137;51.436;6.544;2023-01-26T00:16:11;102124.88;;;0.40;91.67
14117;BME280;7137;51.436;6.544;2023-01-26T00:19:13;102114.19;;;0.27;92.55
14117;BME280;7137;51.436;6.544;2023-01-26T00:22:15;102116.50;;;0.20;93.71
14117;BME280;7137;51.436;6.544;2023-01-26T00:25:16;102122.06;;;0.07;94.99
14117;BME280;7137;51.436;6.544;2023-01-26T00:28:19;102119.13;;;0.21;94.31
14117;BME280;7137;51.436;6.544;2023-01-26T00:31:23;102110.91;;;0.06;95.36
14117;BME280;7137;51.436;6.544;2023-01-26T00:34:24;102114.09;;;0.24;94.78
14117;BME280;7137;51.436;6.544;2023-01-26T00:37:26;102118.81;;;-0.13;95.95
14117;BME280;7137;51.436;6.544;2023-01-26T00:40:27;102115.72;;;-0.03;95.52
14117;BME280;7137;51.436;6.544;2023-01-26T00:43:30;102108.00;;;-0.03;95.46
14117;BME280;7137;51.436;6.544;2023-01-26T00:46:32;102094.81;;;0.12;94.46
14117;BME280;7137;51.436;6.544;2023-01-26T00:49:34;102091.75;;;0.22;94.37
14117;BME280;7137;51.436;6.544;2023-01-26T00:52:35;102076.91;;;-0.12;96.30
14117;BME280;7137;51.436;6.544;2023-01-26T00:55:37;102093.19;;;-0.12;96.80
14117;BME280;7137;51.436;6.544;2023-01-26T00:58:40;102087.47;;;-0.03;97.45
14117;BME280;7137;51.436;6.544;2023-01-26T01:01:44;102082.13;;;-0.09;97.47
14117;BME280;7137;51.436;6.544;2023-01-26T01:04:45;102082.31;;;-0.28;98.47
14117;BME280;7137;51.436;6.544;2023-01-26T01:07:47;102073.47;;;-0.13;97.78
14117;BME280;7137;51.436;6.544;2023-01-26T01:10:48;102083.84;;;-0.10;97.99
14117;BME280;7137;51.436;6.544;2023-01-26T01:17:47;102065.81;;;-0.11;98.07
14117;BME280;7137;51.436;6.544;2023-01-26T01:20:49;102067.19;;;0.05;98.36
14117;BME280;7137;51.436;6.544;2023-01-26T01:23:50;102057.38;;;-0.07;98.57
14117;BME280;7137;51.436;6.544;2023-01-26T01:26:52;102061.09;;;0.01;97.71
14117;BME280;7137;51.436;6.544;2023-01-26T01:29:54;102061.28;;;0.07;97.75
14117;BME280;7137;51.436;6.544;2023-01-26T01:32:57;102056.41;;;0.15;97.41
14117;BME280;7137;51.436;6.544;2023-01-26T01:36:00;102055.59;;;0.16;97.42
14117;BME280;7137;51.436;6.544;2023-01-26T01:39:02;102056.84;;;0.28;97.22
14117;BME280;7137;51.436;6.544;2023-01-26T01:42:04;102057.38;;;-0.07;97.92
14117;BME280;7137;51.436;6.544;2023-01-26T01:45:32;102053.13;;;0.19;98.38
14117;BME280;7137;51.436;6.544;2023-01-26T01:48:44;102061.09;;;0.28;97.54
14117;BME280;7137;51.436;6.544;2023-01-26T01:51:50;102053.75;;;0.39;97.21
14117;BME280;7137;51.436;6.544;2023-01-26T01:54:55;102056.06;;;0.31;97.66
14117;BME280;7137;51.436;6.544;2023-01-26T01:58:02;102059.22;;;0.22;97.95
14117;BME280;7137;51.436;6.544;2023-01-26T02:01:04;102051.28;;;-0.11;97.92
14117;BME280;7137;51.436;6.544;2023-01-26T02:04:07;102050.53;;;0.19;97.55
14117;BME280;7137;51.436;6.544;2023-01-26T02:07:10;102044.19;;;0.35;97.07
14117;BME280;7137;51.436;6.544;2023-01-26T02:10:15;102044.34;;;0.39;97.30
14117;BME280;7137;51.436;6.544;2023-01-26T02:13:19;102046.94;;;0.14;97.35
14117;BME280;7137;51.436;6.544;2023-01-26T02:16:22;102046.69;;;0.06;98.60
14117;BME280;7137;51.436;6.544;2023-01-26T02:19:45;102043.84;;;0.24;98.20
14117;BME280;7137;51.436;6.544;2023-01-26T02:22:57;102035.34;;;0.26;97.09
14117;BME280;7137;51.436;6.544;2023-01-26T02:26:06;102035.22;;;0.22;97.62
14117;BME280;7137;51.436;6.544;2023-01-26T02:29:09;102038.22;;;0.36;97.58
14117;BME280;7137;51.436;6.544;2023-01-26T02:32:11;102031.00;;;0.51;96.80
14117;BME280;7137;51.436;6.544;2023-01-26T02:35:13;102018.41;;;0.32;97.61
14117;BME280;7137;51.436;6.544;2023-01-26T02:38:15;102023.00;;;0.42;97.91
14117;BME280;7137;51.436;6.544;2023-01-26T02:41:19;102016.72;;;0.61;96.39
14117;BME280;7137;51.436;6.544;2023-01-26T02:44:34;102014.00;;;0.56;96.77
14117;BME280;7137;51.436;6.544;2023-01-26T02:47:36;102001.31;;;0.61;96.00
14117;BME280;7137;51.436;6.544;2023-01-26T02:50:39;102002.09;;;0.58;96.34
14117;BME280;7137;51.436;6.544;2023-01-26T02:53:40;102011.75;;;0.67;95.50
14117;BME280;7137;51.436;6.544;2023-01-26T02:56:42;102017.63;;;0.34;97.06
14117;BME280;7137;51.436;6.544;2023-01-26T02:59:44;102010.25;;;0.45;97.43
14117;BME280;7137;51.436;6.544;2023-01-26T03:02:46;102003.47;;;0.47;97.72
14117;BME280;7137;51.436;6.544;2023-01-26T03:05:48;102011.66;;;0.35;98.20
14117;BME280;7137;51.436;6.544;2023-01-26T03:08:49;102005.00;;;0.42;98.14
14117;BME280;7137;51.436;6.544;2023-01-26T03:11:52;102001.28;;;0.59;97.48
14117;BME280;7137;51.436;6.544;2023-01-26T03:14:54;102012.56;;;0.37;97.35
14117;BME280;7137;51.436;6.544;2023-01-26T03:18:15;102008.88;;;0.56;96.74
14117;BME280;7137;51.436;6.544;2023-01-26T03:21:35;102015.94;;;0.63;97.08
14117;BME280;7137;51.436;6.544;2023-01-26T03:24:54;102005.31;;;0.81;94.92
14117;BME280;7137;51.436;6.544;2023-01-26T03:28:14;102002.94;;;0.87;94.96
14117;BME280;7137;51.436;6.544;2023-01-26T03:31:21;102010.63;;;0.85;95.86
14117;BME280;7137;51.436;6.544;2023-01-26T03:34:23;102016.06;;;0.96;92.65
14117;BME280;7137;51.436;6.544;2023-01-26T03:37:24;102006.13;;;0.78;95.47
14117;BME280;7137;51.436;6.544;2023-01-26T03:40:26;102010.63;;;0.85;96.45
14117;BME280;7137;51.436;6.544;2023-01-26T03:43:46;102003.66;;;0.83;95.99
14117;BME280;7137;51.436;6.544;2023-01-26T03:47:05;101996.81;;;0.83;96.72
14117;BME280;7137;51.436;6.544;2023-01-26T03:50:24;101989.13;;;0.83;96.92
14117;BME280;7137;51.436;6.544;2023-01-26T03:53:43;101991.47;;;0.76;96.65
14117;BME280;7137;51.436;6.544;2023-01-26T03:57:02;101993.41;;;0.54;97.90
14117;BME280;7137;51.436;6.544;2023-01-26T04:00:07;101988.63;;;0.67;98.49
14117;BME280;7137;51.436;6.544;2023-01-26T04:03:08;101982.81;;;0.72;98.47
14117;BME280;7137;51.436;6.544;2023-01-26T04:06:27;101974.50;;;0.82;98.31
14117;BME280;7137;51.436;6.544;2023-01-26T04:09:46;101985.91;;;0.91;97.96
14117;BME280;7137;51.436;6.544;2023-01-26T04:12:48;101983.38;;;0.92;97.98
14117;BME280;7137;51.436;6.544;2023-01-26T04:16:08;101988.94;;;1.07;96.84
14117;BME280;7137;51.436;6.544;2023-01-26T04:19:27;101992.47;;;1.11;95.18
14117;BME280;7137;51.436;6.544;2023-01-26T04:22:46;101983.84;;;1.09;96.15
14117;BME280;7137;51.436;6.544;2023-01-26T04:25:48;101985.84;;;1.19;95.81
14117;BME280;7137;51.436;6.544;2023-01-26T04:28:49;101991.06;;;1.22;93.96
14117;BME280;7137;51.436;6.544;2023-01-26T04:31:52;101987.16;;;1.05;94.75
14117;BME280;7137;51.436;6.544;2023-01-26T04:34:54;101990.38;;;1.28;94.56
14117;BME280;7137;51.436;6.544;2023-01-26T04:37:55;101987.34;;;1.12;94.30
14117;BME280;7137;51.436;6.544;2023-01-26T04:40:57;101991.34;;;1.01;96.35
14117;BME280;7137;51.436;6.544;2023-01-26T04:43:58;101996.78;;;1.12;96.40
14117;BME280;7137;51.436;6.544;2023-01-26T04:47:01;101996.28;;;1.25;94.25
14117;BME280;7137;51.436;6.544;2023-01-26T04:50:04;101985.53;;;1.08;95.59
14117;BME280;7137;51.436;6.544;2023-01-26T04:53:05;101979.19;;;0.96;97.07
14117;BME280;7137;51.436;6.544;2023-01-26T04:56:07;101985.06;;;0.92;98.06
14117;BME280;7137;51.436;6.544;2023-01-26T04:59:15;101989.78;;;1.06;99.13
14117;BME280;7137;51.436;6.544;2023-01-26T05:02:17;101988.13;;;1.08;98.26
14117;BME280;7137;51.436;6.544;2023-01-26T05:05:19;101994.09;;;1.07;98.47
14117;BME280;7137;51.436;6.544;2023-01-26T05:08:21;101985.13;;;1.25;96.62
14117;BME280;7137;51.436;6.544;2023-01-26T05:11:22;101992.69;;;1.18;96.43
14117;BME280;7137;51.436;6.544;2023-01-26T05:14:24;101990.16;;;1.20;96.93
14117;BME280;7137;51.436;6.544;2023-01-26T05:17:27;101983.78;;;1.39;94.22
14117;BME280;7137;51.436;6.544;2023-01-26T05:20:28;101982.06;;;1.38;93.03
14117;BME280;7137;51.436;6.544;2023-01-26T05:23:30;101986.25;;;1.03;95.91
14117;BME280;7137;51.436;6.544;2023-01-26T05:26:31;101985.63;;;1.11;97.12
14117;BME280;7137;51.436;6.544;2023-01-26T05:29:33;101986.50;;;1.12;97.86
14117;BME280;7137;51.436;6.544;2023-01-26T05:32:36;101983.16;;;1.14;97.51
14117;BME280;7137;51.436;6.544;2023-01-26T05:35:37;101980.78;;;1.22;96.65
14117;BME280;7137;51.436;6.544;2023-01-26T05:38:39;101987.88;;;1.31;96.60
14117;BME280;7137;51.436;6.544;2023-01-26T05:41:40;101986.88;;;1.26;95.59
14117;BME280;7137;51.436;6.544;2023-01-26T05:44:41;101980.00;;;1.26;96.24
14117;BME280;7137;51.436;6.544;2023-01-26T05:47:45;101989.22;;;1.16;95.49
14117;BME280;7137;51.436;6.544;2023-01-26T05:50:48;101986.38;;;1.07;97.28
14117;BME280;7137;51.436;6.544;2023-01-26T05:53:50;101980.41;;;1.08;98.16
14117;BME280;7137;51.436;6.544;2023-01-26T05:56:53;101981.16;;;1.04;98.99
14117;BME280;7137;51.436;6.544;2023-01-26T05:59:57;101984.84;;;1.14;99.74
14117;BME280;7137;51.436;6.544;2023-01-26T06:03:00;101984.47;;;1.32;98.36
14117;BME280;7137;51.436;6.544;2023-01-26T06:06:02;101987.75;;;1.26;97.37
14117;BME280;7137;51.436;6.544;2023-01-26T06:09:04;101989.31;;;1.21;98.65
14117;BME280;7137;51.436;6.544;2023-01-26T06:12:05;101989.31;;;1.21;99.09
14117;BME280;7137;51.436;6.544;2023-01-26T06:15:08;101979.97;;;1.25;99.70
14117;BME280;7137;51.436;6.544;2023-01-26T06:18:12;101990.19;;;1.22;99.87
14117;BME280;7137;51.436;6.544;2023-01-26T06:21:14;101980.81;;;1.24;100.00
14117;BME280;7137;51.436;6.544;2023-01-26T06:24:15;101987.81;;;1.28;100.00
14117;BME280;7137;51.436;6.544;2023-01-26T06:27:17;101991.38;;;1.33;99.93
14117;BME280;7137;51.436;6.544;2023-01-26T06:30:19;101993.84;;;1.30;99.83
14117;BME280;7137;51.436;6.544;2023-01-26T06:33:22;102002.78;;;1.42;99.78
14117;BME280;7137;51.436;6.544;2023-01-26T06:36:23;102001.19;;;1.47;97.41
14117;BME280;7137;51.436;6.544;2023-01-26T06:39:25;101996.78;;;1.42;95.61
14117;BME280;7137;51.436;6.544;2023-01-26T06:42:26;101992.09;;;1.27;97.67
14117;BME280;7137;51.436;6.544;2023-01-26T06:45:28;101996.63;;;1.37;97.41
14117;BME280;7137;51.436;6.544;2023-01-26T06:48:33;102004.31;;;1.36;97.21
14117;BME280;7137;51.436;6.544;2023-01-26T06:51:45;101999.03;;;1.31;98.57
14117;BME280;7137;51.436;6.544;2023-01-26T06:54:48;102001.84;;;1.40;98.58
14117;BME280;7137;51.436;6.544;2023-01-26T06:57:49;101995.78;;;1.38;98.46
14117;BME280;7137;51.436;6.544;2023-01-26T07:00:51;101991.47;;;1.37;99.01
14117;BME280;7137;51.436;6.544;2023-01-26T07:03:54;101994.91;;;1.38;99.08
14117;BME280;7137;51.436;6.544;2023-01-26T07:06:56;101997.59;;;1.41;99.23
14117;BME280;7137;51.436;6.544;2023-01-26T07:09:57;102003.78;;;1.47;99.20
14117;BME280;7137;51.436;6.544;2023-01-26T07:12:59;102004.72;;;1.51;99.02
14117;BME280;7137;51.436;6.544;2023-01-26T07:16:00;102005.78;;;1.59;98.67
14117;BME280;7137;51.436;6.544;2023-01-26T07:19:03;102007.66;;;1.65;95.53
14117;BME280;7137;51.436;6.544;2023-01-26T07:22:05;102005.16;;;1.68;95.25
14117;BME280;7137;51.436;6.544;2023-01-26T07:25:07;102012.44;;;1.51;97.00
14117;BME280;7137;51.436;6.544;2023-01-26T07:28:08;102012.38;;;1.48;98.02
14117;BME280;7137;51.436;6.544;2023-01-26T07:31:10;102007.22;;;1.48;98.60
14117;BME280;7137;51.436;6.544;2023-01-26T07:34:14;102016.75;;;1.52;98.91
14117;BME280;7137;51.436;6.544;2023-01-26T07:37:15;102012.50;;;1.54;98.87
14117;BME280;7137;51.436;6.544;2023-01-26T07:40:17;102008.34;;;1.58;99.04
14117;BME280;7137;51.436;6.544;2023-01-26T07:43:18;102010.13;;;1.60;99.15
14117;BME280;7137;51.436;6.544;2023-01-26T07:46:20;102009.34;;;1.64;98.77
14117;BME280;7137;51.436;6.544;2023-01-26T07:49:24;102012.09;;;1.70;99.02
14117;BME280;7137;51.436;6.544;2023-01-26T07:52:25;102009.66;;;1.76;98.49
14117;BME280;7137;51.436;6.544;2023-01-26T07:55:27;102021.13;;;1.88;98.25
14117;BME280;7137;51.436;6.544;2023-01-26T07:58:28;102020.53;;;1.98;95.75
14117;BME280;7137;51.436;6.544;2023-01-26T08:01:30;102022.69;;;2.16;91.87
14117;BME280;7137;51.436;6.544;2023-01-26T08:04:33;102025.19;;;2.13;91.51
14117;BME280;7137;51.436;6.544;2023-01-26T08:07:34;102023.69;;;1.88;92.48
14117;BME280;7137;51.436;6.544;2023-01-26T08:10:36;102029.38;;;1.74;94.48
14117;BME280;7137;51.436;6.544;2023-01-26T08:13:37;102030.78;;;1.63;96.28
14117;BME280;7137;51.436;6.544;2023-01-26T08:16:39;102028.97;;;1.59;98.12
14117;BME280;7137;51.436;6.544;2023-01-26T08:19:42;102027.63;;;1.73;97.29
14117;BME280;7137;51.436;6.544;2023-01-26T08:22:44;102035.63;;;1.84;97.82
14117;BME280;7137;51.436;6.544;2023-01-26T08:25:45;102030.06;;;2.02;94.26
14117;BME280;7137;51.436;6.544;2023-01-26T08:28:47;102022.44;;;1.72;95.39
14117;BME280;7137;51.436;6.544;2023-01-26T08:31:49;102032.81;;;1.75;97.17
14117;BME280;7137;51.436;6.544;2023-01-26T08:34:52;102029.88;;;1.61;98.36
14117;BME280;7137;51.436;6.544;2023-01-26T08:37:53;102030.19;;;1.73;99.50
14117;BME280;7137;51.436;6.544;2023-01-26T08:40:55;102025.38;;;1.86;97.60
14117;BME280;7137;51.436;6.544;2023-01-26T08:43:56;102036.03;;;1.99;94.22
14117;BME280;7137;51.436;6.544;2023-01-26T08:46:58;102034.63;;;1.79;96.89
14117;BME280;7137;51.436;6.544;2023-01-26T08:50:01;102032.84;;;1.76;95.07
14117;BME280;7137;51.436;6.544;2023-01-26T08:53:03;102031.97;;;1.76;96.16
14117;BME280;7137;51.436;6.544;2023-01-26T08:56:06;102034.16;;;1.61;96.77
14117;BME280;7137;51.436;6.544;2023-01-26T08:59:09;102037.44;;;1.55;97.66
14117;BME280;7137;51.436;6.544;2023-01-26T09:02:10;102043.50;;;1.57;97.98
14117;BME280;7137;51.436;6.544;2023-01-26T09:05:13;102039.88;;;1.51;99.63
14117;BME280;7137;51.436;6.544;2023-01-26T09:08:15;102035.53;;;1.81;98.93
14117;BME280;7137;51.436;6.544;2023-01-26T09:11:16;102045.84;;;1.81;97.40
14117;BME280;7137;51.436;6.544;2023-01-26T09:14:18;102043.84;;;1.69;98.25
14117;BME280;7137;51.436;6.544;2023-01-26T09:17:19;102044.13;;;1.82;99.61
14117;BME280;7137;51.436;6.544;2023-01-26T09:20:22;102042.00;;;1.98;100.00
14117;BME280;7137;51.436;6.544;2023-01-26T09:23:24;102047.19;;;2.00;100.00
14117;BME280;7137;51.436;6.544;2023-01-26T09:26:25;102060.47;;;2.15;100.00
14117;BME280;7137;51.436;6.544;2023-01-26T09:29:27;102051.75;;;2.46;97.01
14117;BME280;7137;51.436;6.544;2023-01-26T09:32:28;102042.44;;;2.53;96.18
14117;BME280;7137;51.436;6.544;2023-01-26T09:35:31;102058.78;;;2.53;95.61
14117;BME280;7137;51.436;6.544;2023-01-26T09:38:33;102055.22;;;2.48;95.04
14117;BME280;7137;51.436;6.544;2023-01-26T09:41:48;102054.38;;;2.48;96.08
14117;BME280;7137;51.436;6.544;2023-01-26T09:45:01;102051.53;;;2.37;96.44
14117;BME280;7137;51.436;6.544;2023-01-26T09:48:20;102056.56;;;2.32;95.47
14117;BME280;7137;51.436;6.544;2023-01-26T09:51:31;102049.69;;;2.31;96.12
14117;BME280;7137;51.436;6.544;2023-01-26T09:54:36;102057.53;;;2.01;96.98
14117;BME280;7137;51.436;6.544;2023-01-26T09:57:46;102057.97;;;2.20;99.10
14117;BME280;7137;51.436;6.544;2023-01-26T10:00:51;102061.38;;;2.17;97.18
14117;BME280;7137;51.436;6.544;2023-01-26T10:04:00;102047.69;;;2.20;98.08
14117;BME280;7137;51.436;6.544;2023-01-26T10:07:09;102044.50;;;2.30;99.16
14117;BME280;7137;51.436;6.544;2023-01-26T10:10:16;102046.38;;;2.37;99.52
14117;BME280;7137;51.436;6.544;2023-01-26T10:13:21;102045.38;;;2.68;98.33
14117;BME280;7137;51.436;6.544;2023-01-26T10:16:24;102056.91;;;2.84;97.03
14117;BME280;7137;51.436;6.544;2023-01-26T10:19:32;102043.03;;;2.79;98.45
14117;BME280;7137;51.436;6.544;2023-01-26T10:22:41;102039.84;;;2.90;99.68
14117;BME280;7137;51.436;6.544;2023-01-26T10:25:44;102041.00;;;3.05;99.88
14117;BME280;7137;51.436;6.544;2023-01-26T10:28:48;102032.66;;;3.18;98.42
14117;BME280;7137;51.436;6.544;2023-01-26T10:31:50;102034.88;;;3.42;96.74
14117;BME280;7137;51.436;6.544;2023-01-26T10:34:52;102040.91;;;3.42;94.89
14117;BME280;7137;51.436;6.544;2023-01-26T10:37:55;102029.00;;;3.50;93.25
14117;BME280;7137;51.436;6.544;2023-01-26T10:40:58;102032.06;;;3.31;95.23
14117;BME280;7137;51.436;6.544;2023-01-26T10:44:02;102037.34;;;3.37;96.09
14117;BME280;7137;51.436;6.544;2023-01-26T10:47:09;102034.06;;;3.46;93.22
14117;BME280;7137;51.436;6.544;2023-01-26T10:50:20;102030.31;;;3.28;92.37
14117;BME280;7137;51.436;6.544;2023-01-26T10:53:25;102021.72;;;3.30;92.37
14117;BME280;7137;51.436;6.544;2023-01-26T10:56:28;102026.44;;;3.08;92.14
14117;BME280;7137;51.436;6.544;2023-01-26T10:59:33;102033.13;;;2.97;94.42
14117;BME280;7137;51.436;6.544;2023-01-26T11:02:35;102033.31;;;3.08;95.33
14117;BME280;7137;51.436;6.544;2023-01-26T11:05:37;102027.97;;;2.97;94.85
14117;BME280;7137;51.436;6.544;2023-01-26T11:08:40;102037.41;;;2.96;95.59
14117;BME280;7137;51.436;6.544;2023-01-26T11:11:54;102027.38;;;2.70;96.29
14117;BME280;7137;51.436;6.544;2023-01-26T11:15:01;102027.41;;;2.35;97.35
14117;BME280;7137;51.436;6.544;2023-01-26T11:18:15;102019.44;;;2.24;99.74
14117;BME280;7137;51.436;6.544;2023-01-26T11:21:21;102020.50;;;2.32;100.00
14117;BME280;7137;51.436;6.544;2023-01-26T11:24:32;102012.19;;;2.46;100.00
14117;BME280;7137;51.436;6.544;2023-01-26T11:27:39;102014.72;;;2.43;100.00
14117;BME280;7137;51.436;6.544;2023-01-26T11:30:53;102014.03;;;2.51;100.00
14117;BME280;7137;51.436;6.544;2023-01-26T11:34:09;102015.88;;;2.55;100.00
14117;BME280;7137;51.436;6.544;2023-01-26T11:37:37;102010.69;;;2.54;100.00
14117;BME280;7137;51.436;6.544;2023-01-26T11:40:46;102002.03;;;2.53;100.00
14117;BME280;7137;51.436;6.544;2023-01-26T11:43:56;102009.41;;;2.74;100.00
14117;BME280;7137;51.436;6.544;2023-01-26T11:47:26;102005.09;;;2.75;100.00
14117;BME280;7137;51.436;6.544;2023-01-26T11:50:34;102008.41;;;2.67;99.92
14117;BME280;7137;51.436;6.544;2023-01-26T11:53:57;102006.81;;;2.36;100.00
14117;BME280;7137;51.436;6.544;2023-01-26T11:57:10;102007.50;;;2.28;100.00
14117;BME280;7137;51.436;6.544;2023-01-26T12:00:18;101989.69;;;2.38;100.00
14117;BME280;7137;51.436;6.544;2023-01-26T12:03:26;101994.41;;;2.56;100.00
14117;BME280;7137;51.436;6.544;2023-01-26T12:06:36;101995.22;;;2.54;100.00
14117;BME280;7137;51.436;6.544;2023-01-26T12:09:40;101985.22;;;2.69;100.00
14117;BME280;7137;51.436;6.544;2023-01-26T12:12:49;101982.34;;;2.96;100.00
14117;BME280;7137;51.436;6.544;2023-01-26T12:15:55;101978.28;;;3.09;100.00
14117;BME280;7137;51.436;6.544;2023-01-26T12:19:04;101973.34;;;3.21;100.00
14117;BME280;7137;51.436;6.544;2023-01-26T12:22:12;101972.63;;;3.26;100.00
14117;BME280;7137;51.436;6.544;2023-01-26T12:25:22;101975.38;;;3.37;98.53
14117;BME280;7137;51.436;6.544;2023-01-26T12:28:32;101969.41;;;3.40;98.54
14117;BME280;7137;51.436;6.544;2023-01-26T12:31:42;101960.84;;;3.42;97.97
14117;BME280;7137;51.436;6.544;2023-01-26T12:34:46;101960.56;;;3.27;97.71
14117;BME280;7137;51.436;6.544;2023-01-26T12:37:51;101957.84;;;3.21;97.80
14117;BME280;7137;51.436;6.544;2023-01-26T12:41:02;101964.81;;;2.81;99.69
14117;BME280;7137;51.436;6.544;2023-01-26T12:44:19;101953.84;;;2.91;100.00
14117;BME280;7137;51.436;6.544;2023-01-26T12:47:28;101945.47;;;3.02;100.00
14117;BME280;7137;51.436;6.544;2023-01-26T12:50:36;101947.16;;;3.00;100.00
14117;BME280;7137;51.436;6.544;2023-01-26T12:53:44;101950.00;;;3.15;100.00
14117;BME280;7137;51.436;6.544;2023-01-26T12:56:51;101935.63;;;3.27;100.00
14117;BME280;7137;51.436;6.544;2023-01-26T13:00:03;101932.75;;;3.61;100.00
14117;BME280;7137;51.436;6.544;2023-01-26T13:03:14;101947.25;;;3.52;99.59
14117;BME280;7137;51.436;6.544;2023-01-26T13:06:20;101942.13;;;3.54;99.95
14117;BME280;7137;51.436;6.544;2023-01-26T13:09:24;101933.03;;;3.26;100.00
14117;BME280;7137;51.436;6.544;2023-01-26T13:12:45;101938.47;;;3.43;100.00
14117;BME280;7137;51.436;6.544;2023-01-26T13:16:11;101929.41;;;3.66;100.00
14117;BME280;7137;51.436;6.544;2023-01-26T13:19:35;101937.69;;;3.48;100.00
14117;BME280;7137;51.436;6.544;2023-01-26T13:22:39;101928.38;;;3.56;100.00
14117;BME280;7137;51.436;6.544;2023-01-26T13:25:47;101930.72;;;3.43;100.00
14117;BME280;7137;51.436;6.544;2023-01-26T13:28:50;101926.75;;;3.63;100.00
14117;BME280;7137;51.436;6.544;2023-01-26T13:31:54;101925.84;;;3.60;100.00
14117;BME280;7137;51.436;6.544;2023-01-26T13:34:58;101914.03;;;3.75;100.00
14117;BME280;7137;51.436;6.544;2023-01-26T13:38:08;101916.88;;;3.92;100.00
14117;BME280;7137;51.436;6.544;2023-01-26T13:41:17;101913.50;;;3.95;100.00
14117;BME280;7137;51.436;6.544;2023-01-26T13:44:22;101922.28;;;4.07;100.00
14117;BME280;7137;51.436;6.544;2023-01-26T13:47:34;101914.69;;;4.18;100.00
14117;BME280;7137;51.436;6.544;2023-01-26T13:50:39;101904.22;;;4.09;100.00
14117;BME280;7137;51.436;6.544;2023-01-26T13:53:43;101905.22;;;4.20;100.00
14117;BME280;7137;51.436;6.544;2023-01-26T13:57:00;101906.91;;;4.16;100.00
14117;BME280;7137;51.436;6.544;2023-01-26T14:00:03;101904.44;;;4.24;100.00
14117;BME280;7137;51.436;6.544;2023-01-26T14:03:18;101911.28;;;4.22;100.00
14117;BME280;7137;51.436;6.544;2023-01-26T14:06:21;101921.00;;;4.37;100.00
14117;BME280;7137;51.436;6.544;2023-01-26T14:09:26;101918.13;;;4.17;100.00
14117;BME280;7137;51.436;6.544;2023-01-26T14:12:31;101933.16;;;4.45;100.00
14117;BME280;7137;51.436;6.544;2023-01-26T14:15:33;101918.66;;;4.55;100.00
14117;BME280;7137;51.436;6.544;2023-01-26T14:18:37;101921.25;;;4.58;100.00
14117;BME280;7137;51.436;6.544;2023-01-26T14:21:47;101925.69;;;4.67;100.00
14117;BME280;7137;51.436;6.544;2023-01-26T14:24:50;101930.16;;;4.79;100.00
14117;BME280;7137;51.436;6.544;2023-01-26T14:27:52;101929.25;;;4.78;100.00
14117;BME280;7137;51.436;6.544;2023-01-26T14:31:01;101935.09;;;4.60;100.00
14117;BME280;7137;51.436;6.544;2023-01-26T14:34:08;101930.63;;;4.50;100.00
14117;BME280;7137;51.436;6.544;2023-01-26T14:37:12;101931.75;;;4.69;100.00
14117;BME280;7137;51.436;6.544;2023-01-26T14:40:18;101941.03;;;4.52;100.00
14117;BME280;7137;51.436;6.544;2023-01-26T14:43:21;101932.22;;;4.37;100.00
14117;BME280;7137;51.436;6.544;2023-01-26T14:46:24;101935.66;;;4.36;100.00
14117;BME280;7137;51.436;6.544;2023-01-26T14:49:43;101929.72;;;4.45;100.00
14117;BME280;7137;51.436;6.544;2023-01-26T14:52:46;101932.53;;;4.63;100.00
14117;BME280;7137;51.436;6.544;2023-01-26T14:55:49;101928.16;;;4.59;100.00
14117;BME280;7137;51.436;6.544;2023-01-26T14:58:53;101929.31;;;4.81;100.00
14117;BME280;7137;51.436;6.544;2023-01-26T15:02:03;101937.31;;;5.01;100.00
14117;BME280;7137;51.436;6.544;2023-01-26T15:05:17;101938.88;;;4.87;100.00
14117;BME280;7137;51.436;6.544;2023-01-26T15:08:21;101930.56;;;5.17;100.00
14117;BME280;7137;51.436;6.544;2023-01-26T15:11:26;101932.41;;;5.28;100.00
14117;BME280;7137;51.436;6.544;2023-01-26T15:14:48;101935.69;;;5.11;100.00
14117;BME280;7137;51.436;6.544;2023-01-26T15:17:59;101928.97;;;5.31;100.00
14117;BME280;7137;51.436;6.544;2023-01-26T15:21:11;101921.88;;;5.12;100.00
14117;BME280;7137;51.436;6.544;2023-01-26T15:24:14;101925.22;;;5.03;100.00
14117;BME280;7137;51.436;6.544;2023-01-26T15:27:15;101926.16;;;5.08;100.00
14117;BME280;7137;51.436;6.544;2023-01-26T15:30:20;101925.19;;;4.98;100.00
14117;BME280;7137;51.436;6.544;2023-01-26T15:33:50;101929.31;;;4.80;100.00
14117;BME280;7137;51.436;6.544;2023-01-26T15:36:53;101919.00;;;4.86;100.00
14117;BME280;7137;51.436;6.544;2023-01-26T15:39:56;101921.69;;;4.93;100.00
14117;BME280;7137;51.436;6.544;2023-01-26T15:43:19;101926.03;;;4.96;100.00
14117;BME280;7137;51.436;6.544;2023-01-26T15:46:20;101925.22;;;5.03;100.00
14117;BME280;7137;51.436;6.544;2023-01-26T15:49:22;101919.19;;;5.01;100.00
14117;BME280;7137;51.436;6.544;2023-01-26T15:52:27;101919.19;;;5.01;100.00
14117;BME280;7137;51.436;6.544;2023-01-26T15:55:31;101919.19;;;5.01;100.00
14117;BME280;7137;51.436;6.544;2023-01-26T15:58:33;101926.97;;;5.05;100.00
14117;BME280;7137;51.436;6.544;2023-01-26T16:01:35;101929.66;;;5.10;100.00
14117;BME280;7137;51.436;6.544;2023-01-26T16:04:37;101927.94;;;5.12;100.00
14117;BME280;7137;51.436;6.544;2023-01-26T16:07:40;101927.13;;;5.19;100.00
14117;BME280;7137;51.436;6.544;2023-01-26T16:10:42;101918.50;;;5.20;100.00
14117;BME280;7137;51.436;6.544;2023-01-26T16:13:44;101915.97;;;5.22;100.00
14117;BME280;7137;51.436;6.544;2023-01-26T16:16:46;101922.03;;;5.25;100.00
14117;BME280;7137;51.436;6.544;2023-01-26T16:19:48;101924.63;;;5.28;100.00
14117;BME280;7137;51.436;6.544;2023-01-26T16:22:51;101924.66;;;5.30;100.00
14117;BME280;7137;51.436;6.544;2023-01-26T16:25:54;101933.31;;;5.32;100.00
14117;BME280;7137;51.436;6.544;2023-01-26T16:28:56;101929.84;;;5.33;100.00
14117;BME280;7137;51.436;6.544;2023-01-26T16:31:58;101928.19;;;5.36;100.00
14117;BME280;7137;51.436;6.544;2023-01-26T16:35:00;101923.88;;;5.35;100.00